Time;durP1;ratioP1;P1;durP2;ratioP2;P2;SDS_P1;SDS_P2;PMS_P1;PMS_P2;Temp;Humidity;BMP_temperature;BMP_pressure;BME280_temperature;BME280_humidity;BME280_pressure;Samples;Min_cycle;Max_cycle;Signal;HPM_P1;HPM_P2
2022/03/10 00:00:00;;;;;;;;;41.50;35.75;;;;;;;;5125401;27;45407;-75
2022/03/10 00:02:25;;;;;;;;;35.75;33.00;;;;;;;;5126294;27;45274;-75
2022/03/10 00:04:50;;;;;;;;;36.25;33.00;;;;;;;;5124565;27;45953;-75
2022/03/10 00:07:15;;;;;;;;;35.25;32.75;;;;;;;;5125651;27;45474;-76
2022/03/10 00:09:41;;;;;;;;;39.00;34.25;;;;;;;;5124430;27;46282;-76
2022/03/10 00:12:06;;;;;;;;;35.25;31.50;;;;;;;;5125878;27;45359;-75
2022/03/10 00:14:31;;;;;;;;;24.50;23.00;;;;;;;;5124408;27;45504;-76
2022/03/10 00:16:57;;;;;;;;;37.25;34.00;;;;;;;;5124454;27;45283;-76
2022/03/10 00:19:22;;;;;;;;;39.25;33.50;;;;;;;;5143402;27;45339;-76
2022/03/10 00:21:48;;;;;;;;;28.75;27.50;;;;;;;;5145388;27;45253;-75
2022/03/10 00:24:14;;;;;;;;;38.00;31.75;;;;;;;;5143991;27;46158;-76
2022/03/10 00:26:40;;;;;;;;;38.50;32.00;;;;;;;;5144581;27;45303;-76
2022/03/10 00:29:05;;;;;;;;;33.25;30.25;;;;;;;;5145155;27;45369;-76
2022/03/10 00:31:31;;;;;;;;;38.50;33.75;;;;;;;;5146035;27;45336;-76
2022/03/10 00:33:56;;;;;;;;;27.25;25.75;;;;;;;;5148084;27;45184;-75
2022/03/10 00:36:21;;;;;;;;;36.25;30.50;;;;;;;;5147047;27;47981;-76
2022/03/10 00:38:46;;;;;;;;;36.50;32.50;;;;;;;;5146886;27;45447;-76
2022/03/10 00:41:12;;;;;;;;;41.75;34.00;;;;;;;;5147458;27;45399;-76
2022/03/10 00:43:37;;;;;;;;;37.50;31.25;;;;;;;;5147486;27;45522;-76
2022/03/10 00:46:02;;;;;;;;;35.25;32.25;;;;;;;;5145008;27;47391;-76
2022/03/10 00:48:28;;;;;;;;;38.50;32.75;;;;;;;;5146994;27;45335;-75
2022/03/10 00:50:53;;;;;;;;;35.50;34.00;;;;;;;;5147741;27;45775;-76
2022/03/10 00:53:18;;;;;;;;;34.00;30.75;;;;;;;;5146812;27;45338;-76
2022/03/10 00:55:43;;;;;;;;;37.75;29.75;;;;;;;;5145829;27;45245;-75
2022/03/10 00:58:08;;;;;;;;;35.25;31.75;;;;;;;;5144785;27;45719;-76
2022/03/10 01:00:34;;;;;;;;;28.75;27.50;;;;;;;;5144812;27;45484;-76
2022/03/10 01:02:59;;;;;;;;;39.25;34.75;;;;;;;;5145208;27;45609;-77
2022/03/10 01:05:24;;;;;;;;;36.50;28.25;;;;;;;;5144103;27;45389;-75
2022/03/10 01:07:50;;;;;;;;;33.75;32.75;;;;;;;;5142421;27;45274;-75
2022/03/10 01:10:16;;;;;;;;;34.75;32.50;;;;;;;;5144265;27;45256;-76
2022/03/10 01:12:44;;;;;;;;;32.25;30.50;;;;;;;;5144306;27;45473;-75
2022/03/10 01:15:10;;;;;;;;;33.25;32.75;;;;;;;;5143141;27;47090;-76
2022/03/10 01:17:35;;;;;;;;;33.75;31.00;;;;;;;;5140476;27;45232;-76
2022/03/10 01:20:01;;;;;;;;;35.25;30.25;;;;;;;;5123475;27;45144;-76
2022/03/10 01:22:26;;;;;;;;;27.25;27.25;;;;;;;;5123398;27;45510;-75
2022/03/10 01:24:51;;;;;;;;;35.75;33.25;;;;;;;;5123069;27;46712;-76
2022/03/10 01:27:17;;;;;;;;;35.00;28.00;;;;;;;;5123561;27;45276;-76
2022/03/10 01:29:42;;;;;;;;;36.50;33.75;;;;;;;;5123134;27;45395;-76
2022/03/10 01:32:07;;;;;;;;;36.25;32.50;;;;;;;;5123143;27;45201;-75
2022/03/10 01:34:33;;;;;;;;;33.00;31.75;;;;;;;;5122619;27;45424;-76
2022/03/10 01:36:58;;;;;;;;;33.75;30.75;;;;;;;;5121691;27;45240;-75
2022/03/10 01:39:24;;;;;;;;;36.00;32.50;;;;;;;;5121539;27;45303;-76
2022/03/10 01:41:49;;;;;;;;;31.00;28.00;;;;;;;;5121940;27;46410;-76
2022/03/10 01:44:15;;;;;;;;;35.00;31.75;;;;;;;;5123083;27;46495;-76
2022/03/10 01:46:41;;;;;;;;;26.25;26.25;;;;;;;;5121986;27;45715;-76
2022/03/10 01:49:06;;;;;;;;;31.75;29.75;;;;;;;;5123052;27;45350;-76
2022/03/10 01:51:32;;;;;;;;;35.00;34.00;;;;;;;;5121928;27;47209;-75
2022/03/10 01:53:58;;;;;;;;;36.50;32.00;;;;;;;;5123233;27;46682;-76
2022/03/10 01:56:23;;;;;;;;;33.00;30.25;;;;;;;;5123696;27;45368;-75
2022/03/10 01:58:49;;;;;;;;;36.75;33.25;;;;;;;;5123472;27;45346;-76
2022/03/10 02:01:15;;;;;;;;;34.00;32.50;;;;;;;;5123651;27;45514;-75
2022/03/10 02:03:41;;;;;;;;;28.50;26.25;;;;;;;;5122963;27;46209;-75
2022/03/10 02:06:07;;;;;;;;;33.00;31.50;;;;;;;;5122489;27;45307;-76
2022/03/10 02:11:17;;;;;;;;;30.00;29.25;;;;;;;;5123902;27;45322;-76
2022/03/10 02:13:43;;;;;;;;;35.25;33.75;;;;;;;;5122200;27;47226;-76
2022/03/10 02:18:59;;;;;;;;;33.00;31.25;;;;;;;;5138124;27;45378;-76
2022/03/10 02:21:24;;;;;;;;;31.00;31.00;;;;;;;;5144092;27;45533;-76
2022/03/10 02:23:50;;;;;;;;;32.00;32.00;;;;;;;;5144799;27;46673;-76
2022/03/10 02:26:15;;;;;;;;;34.75;31.25;;;;;;;;5142974;27;45272;-76
2022/03/10 02:28:41;;;;;;;;;35.00;31.50;;;;;;;;5143381;27;45253;-76
2022/03/10 02:31:06;;;;;;;;;34.75;31.50;;;;;;;;5143232;27;45235;-76
2022/03/10 02:33:32;;;;;;;;;35.50;32.25;;;;;;;;5141669;27;48417;-75
2022/03/10 02:35:58;;;;;;;;;35.25;30.00;;;;;;;;5143189;27;45347;-76
2022/03/10 02:38:23;;;;;;;;;29.50;27.00;;;;;;;;5143834;27;45312;-76
2022/03/10 02:40:49;;;;;;;;;30.75;29.25;;;;;;;;5141194;27;45919;-76
2022/03/10 02:43:14;;;;;;;;;32.75;27.50;;;;;;;;5143470;27;45298;-76
2022/03/10 02:45:39;;;;;;;;;29.75;26.25;;;;;;;;5143101;27;45437;-76
2022/03/10 02:48:05;;;;;;;;;40.00;32.50;;;;;;;;5143517;27;45386;-75
2022/03/10 02:50:30;;;;;;;;;35.50;32.75;;;;;;;;5141859;27;47483;-76
2022/03/10 02:52:55;;;;;;;;;36.50;33.50;;;;;;;;5143420;27;45352;-75
2022/03/10 02:55:21;;;;;;;;;35.75;31.25;;;;;;;;5144152;27;45422;-75
2022/03/10 02:57:46;;;;;;;;;33.25;27.50;;;;;;;;5143960;27;45465;-76
2022/03/10 03:00:14;;;;;;;;;36.25;32.00;;;;;;;;5145353;27;45285;-76
2022/03/10 03:02:40;;;;;;;;;33.50;30.50;;;;;;;;5145178;27;45337;-75
2022/03/10 03:05:06;;;;;;;;;34.50;30.50;;;;;;;;5145000;27;45260;-75
2022/03/10 03:07:31;;;;;;;;;35.50;32.50;;;;;;;;5145042;27;45278;-75
2022/03/10 03:09:57;;;;;;;;;38.00;33.00;;;;;;;;5144282;27;45315;-75
2022/03/10 03:12:22;;;;;;;;;34.25;32.00;;;;;;;;5144334;27;46589;-76
2022/03/10 03:14:47;;;;;;;;;31.25;31.00;;;;;;;;5144512;27;45322;-76
2022/03/10 03:17:12;;;;;;;;;35.25;32.00;;;;;;;;5141939;27;45233;-76
2022/03/10 03:19:37;;;;;;;;;33.50;29.00;;;;;;;;5123255;27;45264;-75
2022/03/10 03:22:03;;;;;;;;;32.25;30.00;;;;;;;;5125017;27;45342;-76
2022/03/10 03:24:28;;;;;;;;;36.00;32.00;;;;;;;;5125744;27;45317;-76
2022/03/10 03:26:53;;;;;;;;;36.50;31.75;;;;;;;;5126987;27;45727;-76
2022/03/10 03:29:19;;;;;;;;;28.75;24.75;;;;;;;;5125688;27;46081;-76
2022/03/10 03:31:44;;;;;;;;;34.50;30.25;;;;;;;;5127020;27;45492;-76
2022/03/10 03:34:12;;;;;;;;;34.50;31.00;;;;;;;;5126465;27;45328;-76
2022/03/10 03:36:43;;;;;;;;;36.50;31.75;;;;;;;;5127987;27;45359;-76
2022/03/10 03:39:08;;;;;;;;;32.25;30.00;;;;;;;;5126896;27;45292;-76
2022/03/10 03:41:34;;;;;;;;;31.25;31.00;;;;;;;;5126212;27;46218;-76
2022/03/10 03:43:59;;;;;;;;;30.25;30.25;;;;;;;;5125262;27;45307;-75
2022/03/10 03:46:24;;;;;;;;;28.00;27.50;;;;;;;;5124543;27;45450;-76
2022/03/10 03:48:50;;;;;;;;;35.75;34.50;;;;;;;;5125025;27;45471;-75
2022/03/10 03:51:15;;;;;;;;;39.25;34.00;;;;;;;;5123073;27;47282;-75
2022/03/10 03:53:40;;;;;;;;;34.50;28.75;;;;;;;;5124781;27;45338;-75
2022/03/10 03:56:05;;;;;;;;;31.50;29.75;;;;;;;;5125136;27;45338;-76
2022/03/10 03:58:30;;;;;;;;;29.50;28.00;;;;;;;;5125353;27;45393;-76
2022/03/10 04:00:56;;;;;;;;;36.50;33.00;;;;;;;;5124750;27;45422;-75
2022/03/10 04:03:21;;;;;;;;;32.00;32.00;;;;;;;;5125569;27;45279;-76
2022/03/10 04:05:46;;;;;;;;;34.75;31.75;;;;;;;;5125370;27;45358;-76
2022/03/10 04:08:12;;;;;;;;;38.25;33.50;;;;;;;;5125625;27;45572;-76
2022/03/10 04:10:38;;;;;;;;;38.75;33.50;;;;;;;;5119773;27;47086;-76
2022/03/10 04:13:04;;;;;;;;;33.00;29.00;;;;;;;;5105197;27;45380;-75
2022/03/10 04:15:30;;;;;;;;;38.50;33.25;;;;;;;;5112058;27;45362;-76
2022/03/10 04:17:56;;;;;;;;;37.50;34.75;;;;;;;;5116983;27;45448;-76
2022/03/10 04:20:21;;;;;;;;;34.75;31.50;;;;;;;;5143075;27;47416;-75
2022/03/10 04:22:46;;;;;;;;;28.50;28.00;;;;;;;;5145140;27;45279;-76
2022/03/10 04:25:11;;;;;;;;;36.25;33.25;;;;;;;;5143587;27;45245;-76
2022/03/10 04:27:37;;;;;;;;;39.00;35.00;;;;;;;;5144728;27;45176;-75
2022/03/10 04:30:03;;;;;;;;;35.25;32.50;;;;;;;;5144020;27;45986;-76
2022/03/10 04:32:28;;;;;;;;;33.50;28.50;;;;;;;;5144954;27;45356;-76
2022/03/10 04:34:53;;;;;;;;;41.00;34.00;;;;;;;;5145135;27;45355;-75
2022/03/10 04:37:18;;;;;;;;;37.25;30.75;;;;;;;;5144532;27;45198;-75
2022/03/10 04:39:44;;;;;;;;;40.00;33.75;;;;;;;;5124994;27;45918;-75
2022/03/10 04:42:10;;;;;;;;;34.75;29.00;;;;;;;;5122331;27;45820;-75
2022/03/10 04:44:35;;;;;;;;;43.50;34.75;;;;;;;;5122903;27;45337;-75
2022/03/10 04:47:00;;;;;;;;;33.75;28.75;;;;;;;;5123495;27;45311;-76
2022/03/10 04:49:26;;;;;;;;;36.00;33.00;;;;;;;;5123415;27;45415;-76
2022/03/10 04:51:51;;;;;;;;;35.75;32.75;;;;;;;;5123410;27;45352;-76
2022/03/10 04:54:16;;;;;;;;;43.25;36.00;;;;;;;;5121955;27;45291;-75
2022/03/10 04:56:42;;;;;;;;;35.50;33.50;;;;;;;;5122165;27;46477;-76
2022/03/10 04:59:07;;;;;;;;;35.75;32.75;;;;;;;;5123181;27;46439;-75
2022/03/10 05:01:32;;;;;;;;;40.00;35.25;;;;;;;;5123405;27;45345;-75
2022/03/10 05:03:57;;;;;;;;;36.50;33.75;;;;;;;;5121820;27;45295;-76
2022/03/10 05:06:23;;;;;;;;;35.50;32.75;;;;;;;;5122056;27;46161;-75
2022/03/10 05:08:48;;;;;;;;;34.75;31.25;;;;;;;;5121819;27;47418;-75
2022/03/10 05:11:14;;;;;;;;;35.00;33.25;;;;;;;;5121961;27;45982;-75
2022/03/10 05:13:39;;;;;;;;;43.50;36.25;;;;;;;;5122918;27;45281;-75
2022/03/10 05:16:04;;;;;;;;;39.75;36.25;;;;;;;;5121814;27;45885;-75
2022/03/10 05:18:30;;;;;;;;;29.75;28.00;;;;;;;;5134796;27;45247;-75
2022/03/10 05:20:55;;;;;;;;;36.75;32.75;;;;;;;;5144572;27;45459;-76
2022/03/10 05:23:20;;;;;;;;;36.50;34.25;;;;;;;;5142567;27;45639;-76
2022/03/10 05:25:45;;;;;;;;;35.75;34.00;;;;;;;;5144381;27;45547;-75
2022/03/10 05:28:13;;;;;;;;;37.75;33.50;;;;;;;;5143456;27;46457;-76
2022/03/10 05:30:39;;;;;;;;;43.50;36.25;;;;;;;;5143838;27;45736;-75
2022/03/10 05:33:04;;;;;;;;;41.25;34.50;;;;;;;;5144250;27;45557;-76
2022/03/10 05:35:30;;;;;;;;;47.50;36.25;;;;;;;;5144431;27;45588;-75
2022/03/10 05:37:55;;;;;;;;;40.50;34.50;;;;;;;;5143620;27;46272;-75
2022/03/10 05:40:21;;;;;;;;;45.00;38.25;;;;;;;;5143468;27;45268;-76
2022/03/10 05:42:47;;;;;;;;;38.25;34.00;;;;;;;;5142784;27;45310;-76
2022/03/10 05:45:14;;;;;;;;;25.00;19.00;;;;;;;;5142323;27;46537;-75
2022/03/10 05:47:41;;;;;;;;;41.25;36.50;;;;;;;;5141765;27;47642;-75
2022/03/10 05:50:06;;;;;;;;;44.00;37.00;;;;;;;;5142861;27;45776;-75
2022/03/10 05:52:32;;;;;;;;;42.00;34.00;;;;;;;;5143012;27;45416;-75
2022/03/10 05:54:57;;;;;;;;;35.00;33.00;;;;;;;;5140904;27;46504;-75
2022/03/10 05:57:23;;;;;;;;;40.25;36.00;;;;;;;;5129937;27;47261;-74
2022/03/10 05:59:48;;;;;;;;;41.75;35.25;;;;;;;;5100009;27;45372;-74
2022/03/10 06:02:15;;;;;;;;;37.50;34.25;;;;;;;;5101467;27;45512;-75
2022/03/10 06:04:40;;;;;;;;;45.50;36.00;;;;;;;;5101023;27;45425;-75
2022/03/10 06:07:05;;;;;;;;;39.00;36.25;;;;;;;;5099621;27;46141;-75
2022/03/10 06:09:30;;;;;;;;;43.25;38.00;;;;;;;;5098944;27;45577;-75
2022/03/10 06:11:56;;;;;;;;;43.00;34.00;;;;;;;;5100117;27;45558;-75
2022/03/10 06:14:21;;;;;;;;;49.25;37.75;;;;;;;;5097994;27;45492;-75
2022/03/10 06:16:46;;;;;;;;;36.75;33.75;;;;;;;;5101061;27;46345;-75
2022/03/10 06:19:11;;;;;;;;;39.25;36.25;;;;;;;;5108883;27;45429;-75
2022/03/10 06:21:38;;;;;;;;;40.50;35.75;;;;;;;;5102671;27;45195;-75
2022/03/10 06:24:04;;;;;;;;;45.75;38.50;;;;;;;;5102883;27;46900;-75
2022/03/10 06:26:29;;;;;;;;;49.00;39.00;;;;;;;;5102713;27;45372;-75
2022/03/10 06:28:54;;;;;;;;;39.75;35.75;;;;;;;;5102821;27;45407;-76
2022/03/10 06:31:19;;;;;;;;;38.50;35.50;;;;;;;;5097683;27;45363;-75
2022/03/10 06:33:44;;;;;;;;;45.00;37.25;;;;;;;;5100276;27;45242;-76
2022/03/10 06:36:11;;;;;;;;;38.75;34.75;;;;;;;;5099931;27;46532;-78
2022/03/10 06:38:36;;;;;;;;;40.50;35.25;;;;;;;;5100646;27;45612;-76
2022/03/10 06:41:02;;;;;;;;;40.75;35.75;;;;;;;;5100498;27;45405;-76
2022/03/10 06:43:27;;;;;;;;;47.25;39.50;;;;;;;;5100399;27;45333;-76
2022/03/10 06:45:52;;;;;;;;;39.00;36.00;;;;;;;;5101379;27;45541;-77
2022/03/10 06:48:17;;;;;;;;;44.25;38.25;;;;;;;;5115724;27;45259;-76
2022/03/10 06:50:43;;;;;;;;;39.50;35.50;;;;;;;;5120835;27;45227;-75
2022/03/10 06:53:08;;;;;;;;;40.00;36.00;;;;;;;;5118076;27;45314;-77
2022/03/10 06:55:33;;;;;;;;;37.25;32.00;;;;;;;;5100084;27;45251;-75
2022/03/10 06:57:58;;;;;;;;;40.75;36.25;;;;;;;;5100277;27;45252;-75
2022/03/10 07:00:24;;;;;;;;;40.00;34.00;;;;;;;;5100261;27;45443;-75
2022/03/10 07:02:49;;;;;;;;;36.75;33.75;;;;;;;;5100221;27;45318;-75
2022/03/10 07:05:15;;;;;;;;;41.25;36.25;;;;;;;;5099961;27;46057;-75
2022/03/10 07:07:40;;;;;;;;;42.75;35.00;;;;;;;;5099914;27;45358;-75
2022/03/10 07:10:06;;;;;;;;;41.75;36.50;;;;;;;;5100093;27;45368;-75
2022/03/10 07:12:39;;;;;;;;;40.00;36.00;;;;;;;;5099880;27;45378;-75
2022/03/10 07:15:05;;;;;;;;;44.25;36.00;;;;;;;;5099989;27;45405;-76
2022/03/10 07:17:30;;;;;;;;;35.50;32.75;;;;;;;;5106089;27;45370;-75
2022/03/10 07:19:56;;;;;;;;;41.75;36.50;;;;;;;;5141146;27;45262;-76
2022/03/10 07:22:21;;;;;;;;;37.50;34.50;;;;;;;;5141358;27;45535;-75
2022/03/10 07:24:46;;;;;;;;;39.75;35.50;;;;;;;;5141158;27;45340;-75
2022/03/10 07:27:12;;;;;;;;;43.75;36.75;;;;;;;;5140970;27;45295;-76
2022/03/10 07:29:37;;;;;;;;;38.50;31.00;;;;;;;;5141259;27;45230;-75
2022/03/10 07:32:02;;;;;;;;;41.00;36.25;;;;;;;;5105183;27;45342;-76
2022/03/10 07:34:28;;;;;;;;;38.25;34.00;;;;;;;;5099585;27;46193;-75
2022/03/10 07:36:53;;;;;;;;;44.00;36.00;;;;;;;;5099716;27;45314;-75
2022/03/10 07:39:18;;;;;;;;;35.50;33.00;;;;;;;;5099864;27;45699;-77
2022/03/10 07:41:44;;;;;;;;;47.25;37.75;;;;;;;;5099661;27;45659;-78
2022/03/10 07:44:09;;;;;;;;;46.75;38.75;;;;;;;;5100227;27;46180;-76
2022/03/10 07:46:34;;;;;;;;;37.50;33.25;;;;;;;;5103108;27;45254;-78
2022/03/10 07:49:00;;;;;;;;;34.00;31.75;;;;;;;;5103041;27;45508;-78
2022/03/10 07:51:25;;;;;;;;;38.00;34.25;;;;;;;;5118195;27;45993;-78
2022/03/10 07:53:51;;;;;;;;;37.50;35.25;;;;;;;;5117856;27;46280;-78
2022/03/10 07:56:16;;;;;;;;;37.50;32.75;;;;;;;;5118132;27;45848;-78
2022/03/10 07:58:41;;;;;;;;;44.75;36.25;;;;;;;;5119992;27;45192;-78
2022/03/10 08:01:07;;;;;;;;;35.50;34.00;;;;;;;;5118814;27;45604;-78
2022/03/10 08:03:32;;;;;;;;;29.75;28.75;;;;;;;;5117560;27;46204;-78
2022/03/10 08:05:57;;;;;;;;;42.00;34.50;;;;;;;;5121016;27;45360;-78
2022/03/10 08:08:22;;;;;;;;;36.75;33.50;;;;;;;;5121862;27;45508;-78
2022/03/10 08:10:48;;;;;;;;;42.00;34.50;;;;;;;;5119985;27;46716;-78
2022/03/10 08:13:14;;;;;;;;;37.00;32.50;;;;;;;;5121986;27;45723;-78
2022/03/10 08:15:40;;;;;;;;;34.00;32.50;;;;;;;;5122143;27;45286;-78
2022/03/10 08:18:06;;;;;;;;;36.00;32.50;;;;;;;;5131642;27;45472;-79
2022/03/10 08:20:31;;;;;;;;;37.25;33.75;;;;;;;;5143362;27;45419;-78
2022/03/10 08:22:57;;;;;;;;;32.50;32.00;;;;;;;;5144090;27;45419;-78
2022/03/10 08:25:22;;;;;;;;;42.00;35.25;;;;;;;;5143961;27;45343;-79
2022/03/10 08:27:47;;;;;;;;;33.25;31.25;;;;;;;;5142685;27;45309;-78
2022/03/10 08:30:13;;;;;;;;;29.75;29.50;;;;;;;;5142352;27;46362;-78
2022/03/10 08:32:39;;;;;;;;;37.00;32.25;;;;;;;;5143857;27;45327;-79
2022/03/10 08:35:04;;;;;;;;;32.25;30.75;;;;;;;;5143653;27;45250;-78
2022/03/10 08:37:30;;;;;;;;;36.25;34.00;;;;;;;;5142617;27;45724;-79
2022/03/10 08:39:55;;;;;;;;;39.75;34.50;;;;;;;;5143506;27;45527;-79
2022/03/10 08:42:20;;;;;;;;;36.25;33.75;;;;;;;;5142506;27;48354;-79
2022/03/10 08:44:46;;;;;;;;;37.50;33.75;;;;;;;;5142454;27;45644;-78
2022/03/10 08:47:11;;;;;;;;;32.25;31.00;;;;;;;;5143827;27;45136;-78
2022/03/10 08:49:36;;;;;;;;;37.50;32.75;;;;;;;;5142209;27;46434;-78
2022/03/10 08:52:01;;;;;;;;;34.75;32.25;;;;;;;;5142055;27;48208;-78
2022/03/10 08:54:27;;;;;;;;;35.25;32.75;;;;;;;;5143631;27;45309;-78
2022/03/10 08:56:52;;;;;;;;;32.25;30.50;;;;;;;;5143681;27;45258;-78
2022/03/10 08:59:17;;;;;;;;;36.50;33.50;;;;;;;;5142136;27;47102;-78
2022/03/10 09:01:42;;;;;;;;;34.00;31.25;;;;;;;;5143401;27;45427;-78
2022/03/10 09:04:07;;;;;;;;;31.25;30.25;;;;;;;;5143260;27;45180;-78
2022/03/10 09:06:33;;;;;;;;;37.00;31.75;;;;;;;;5143573;27;45286;-78
2022/03/10 09:08:58;;;;;;;;;32.75;31.25;;;;;;;;5143237;27;45310;-78
2022/03/10 09:11:24;;;;;;;;;34.25;31.50;;;;;;;;5143260;27;45320;-79
2022/03/10 09:13:49;;;;;;;;;34.75;32.00;;;;;;;;5141787;27;45968;-79
2022/03/10 09:16:18;;;;;;;;;33.50;31.25;;;;;;;;5140608;27;45335;-78
2022/03/10 09:18:45;;;;;;;;;24.75;24.75;;;;;;;;5129036;27;45311;-78
2022/03/10 09:21:10;;;;;;;;;29.75;29.75;;;;;;;;5120865;27;47100;-79
2022/03/10 09:23:35;;;;;;;;;30.50;30.25;;;;;;;;5120995;27;45359;-78
2022/03/10 09:26:00;;;;;;;;;30.50;29.75;;;;;;;;5120862;27;45320;-78
2022/03/10 09:28:26;;;;;;;;;31.00;28.75;;;;;;;;5120426;27;46092;-79
2022/03/10 09:30:51;;;;;;;;;34.75;30.50;;;;;;;;5122041;27;45408;-78
2022/03/10 09:33:16;;;;;;;;;32.25;28.25;;;;;;;;5120749;27;46280;-78
2022/03/10 09:35:42;;;;;;;;;29.25;27.50;;;;;;;;5122130;27;45636;-77
2022/03/10 09:38:08;;;;;;;;;23.75;23.75;;;;;;;;5122124;27;45301;-78
2022/03/10 09:40:34;;;;;;;;;32.00;28.25;;;;;;;;5120633;27;46342;-77
2022/03/10 09:42:59;;;;;;;;;32.50;29.50;;;;;;;;5122031;27;45400;-77
2022/03/10 09:45:28;;;;;;;;;33.00;30.00;;;;;;;;5121073;27;45633;-77
2022/03/10 09:47:54;;;;;;;;;28.67;27.33;;;;;;;;5120678;27;45401;-77
2022/03/10 09:50:19;;;;;;;;;31.75;28.75;;;;;;;;5121525;27;46495;-78
2022/03/10 09:52:45;;;;;;;;;29.50;27.00;;;;;;;;5120447;27;45434;-78
2022/03/10 09:55:11;;;;;;;;;33.00;30.50;;;;;;;;5120454;27;45384;-78
2022/03/10 09:57:37;;;;;;;;;26.00;25.00;;;;;;;;5120262;27;47130;-78
2022/03/10 10:00:03;;;;;;;;;31.50;29.75;;;;;;;;5121521;27;45269;-77
2022/03/10 10:02:29;;;;;;;;;28.00;26.67;;;;;;;;5121708;27;45184;-78
2022/03/10 10:04:55;;;;;;;;;27.67;27.67;;;;;;;;5120179;27;45276;-78
2022/03/10 10:07:30;;;;;;;;;25.67;24.00;;;;;;;;5120237;27;47115;-78
2022/03/10 10:09:57;;;;;;;;;26.00;26.00;;;;;;;;5121258;27;45520;-77
2022/03/10 10:12:25;;;;;;;;;26.00;25.67;;;;;;;;5121483;27;45237;-78
2022/03/10 10:14:50;;;;;;;;;25.67;25.00;;;;;;;;5120154;27;45360;-77
2022/03/10 10:17:16;;;;;;;;;27.00;26.00;;;;;;;;5122274;27;45340;-78
2022/03/10 10:19:42;;;;;;;;;28.33;25.00;;;;;;;;5142011;27;45327;-78
2022/03/10 10:22:19;;;;;;;;;28.00;25.67;;;;;;;;5140833;27;46358;-78
2022/03/10 10:24:54;;;;;;;;;22.33;22.00;;;;;;;;5142077;27;45234;-78
2022/03/10 10:27:20;;;;;;;;;22.67;21.33;;;;;;;;5140300;27;47536;-77
2022/03/10 10:29:46;;;;;;;;;30.67;27.33;;;;;;;;5141776;27;45377;-78
2022/03/10 10:32:11;;;;;;;;;25.33;23.67;;;;;;;;5141680;27;45322;-77
2022/03/10 10:34:36;;;;;;;;;26.67;23.33;;;;;;;;5141863;27;45345;-77
2022/03/10 10:37:01;;;;;;;;;22.33;22.33;;;;;;;;5140380;27;46071;-78
2022/03/10 10:39:27;;;;;;;;;22.33;22.00;;;;;;;;5140362;27;47336;-78
2022/03/10 10:41:52;;;;;;;;;22.67;20.33;;;;;;;;5141841;27;45383;-77
2022/03/10 10:44:18;;;;;;;;;23.00;21.33;;;;;;;;5141958;27;45263;-78
2022/03/10 10:46:48;;;;;;;;;25.33;25.33;;;;;;;;5140429;27;47105;-78
2022/03/10 10:49:18;;;;;;;;;20.67;20.33;;;;;;;;5141548;27;45376;-77
2022/03/10 10:51:46;;;;;;;;;21.00;19.33;;;;;;;;5141717;27;45409;-77
2022/03/10 10:54:20;;;;;;;;;21.33;19.33;;;;;;;;5140083;27;45336;-78
2022/03/10 10:56:46;;;;;;;;;18.33;18.33;;;;;;;;5141573;27;45552;-78
2022/03/10 10:59:30;;;;;;;;;16.00;15.33;;;;;;;;5141343;27;45416;-78
2022/03/10 11:02:19;;;;;;;;;15.67;15.00;;;;;;;;5140246;27;45382;-78
2022/03/10 11:04:48;;;;;;;;;17.00;15.00;;;;;;;;5131585;27;45499;-78
2022/03/10 11:07:14;;;;;;;;;15.33;15.00;;;;;;;;5141401;27;45578;-78
2022/03/10 11:09:41;;;;;;;;;20.00;17.33;;;;;;;;5141383;27;45486;-78
2022/03/10 11:12:09;;;;;;;;;17.67;16.67;;;;;;;;5139986;27;45233;-78
2022/03/10 11:14:34;;;;;;;;;15.67;14.33;;;;;;;;5141480;27;45287;-78
2022/03/10 11:17:00;;;;;;;;;13.67;13.67;;;;;;;;5139670;27;47387;-79
2022/03/10 11:19:25;;;;;;;;;18.00;16.00;;;;;;;;5119836;27;48045;-79
2022/03/10 11:22:03;;;;;;;;;21.00;18.67;;;;;;;;5119061;27;45359;-79
2022/03/10 11:24:31;;;;;;;;;25.00;23.67;;;;;;;;5113110;27;45305;-78
2022/03/10 11:26:56;;;;;;;;;25.00;23.33;;;;;;;;5099543;27;45353;-79
2022/03/10 11:29:23;;;;;;;;;21.33;21.33;;;;;;;;5115599;27;47209;-78
2022/03/10 11:31:48;;;;;;;;;19.33;18.33;;;;;;;;5099736;27;45255;-79
2022/03/10 11:34:49;;;;;;;;;24.33;22.00;;;;;;;;5115471;27;45251;-78
2022/03/10 11:37:32;;;;;;;;;19.00;18.00;;;;;;;;5080332;27;45450;-78
2022/03/10 11:39:57;;;;;;;;;17.00;17.00;;;;;;;;5096700;27;47578;-78
2022/03/10 11:42:26;;;;;;;;;20.33;18.67;;;;;;;;5100426;27;45397;-78
2022/03/10 11:45:04;;;;;;;;;19.00;17.67;;;;;;;;5101756;27;45294;-78
2022/03/10 11:47:30;;;;;;;;;12.33;11.33;;;;;;;;5100631;27;46262;-78
2022/03/10 11:49:55;;;;;;;;;13.00;12.33;;;;;;;;5102263;27;45401;-77
2022/03/10 11:52:21;;;;;;;;;17.33;17.00;;;;;;;;5102913;27;45345;-77
2022/03/10 11:55:01;;;;;;;;;15.00;15.00;;;;;;;;5101928;27;45314;-78
2022/03/10 11:57:26;;;;;;;;;15.33;15.33;;;;;;;;5101747;27;45563;-77
2022/03/10 11:59:52;;;;;;;;;14.33;13.00;;;;;;;;5102876;27;46300;-77
2022/03/10 12:02:39;;;;;;;;;17.00;17.00;;;;;;;;5101725;27;45756;-77
2022/03/10 12:05:05;;;;;;;;;13.67;12.33;;;;;;;;5103052;27;45329;-77
2022/03/10 12:07:30;;;;;;;;;16.00;15.67;;;;;;;;5101691;27;45744;-78
2022/03/10 12:10:05;;;;;;;;;18.33;17.00;;;;;;;;5101409;27;47586;-78
2022/03/10 12:12:34;;;;;;;;;13.00;13.00;;;;;;;;5102820;27;45477;-78
2022/03/10 12:15:19;;;;;;;;;14.67;14.00;;;;;;;;5084627;27;45342;-78
2022/03/10 12:17:45;;;;;;;;;18.67;18.33;;;;;;;;5111655;27;47013;-78
2022/03/10 12:20:11;;;;;;;;;14.67;14.00;;;;;;;;5143876;27;45890;-77
2022/03/10 12:22:36;;;;;;;;;13.67;12.00;;;;;;;;5144221;27;45412;-78
2022/03/10 12:25:21;;;;;;;;;11.33;11.33;;;;;;;;5142730;27;45300;-77
2022/03/10 12:27:53;;;;;;;;;12.67;12.67;;;;;;;;5142758;27;45964;-77
2022/03/10 12:30:20;;;;;;;;;14.00;14.00;;;;;;;;5143813;27;46522;-77
2022/03/10 12:32:48;;;;;;;;;11.00;11.00;;;;;;;;5142473;27;45420;-77
2022/03/10 12:35:13;;;;;;;;;12.00;11.00;;;;;;;;5143937;27;45311;-77
2022/03/10 12:37:44;;;;;;;;;11.67;11.67;;;;;;;;5143946;27;45277;-77
2022/03/10 12:40:15;;;;;;;;;13.33;11.67;;;;;;;;5142287;27;48386;-78
2022/03/10 12:42:41;;;;;;;;;12.00;12.00;;;;;;;;5142244;27;45408;-78
2022/03/10 12:45:07;;;;;;;;;9.67;9.67;;;;;;;;5143810;27;45315;-78
2022/03/10 12:47:33;;;;;;;;;12.33;12.33;;;;;;;;5142331;27;47267;-78
2022/03/10 12:49:58;;;;;;;;;12.67;11.33;;;;;;;;5142288;27;45600;-79
2022/03/10 12:52:27;;;;;;;;;13.00;13.00;;;;;;;;5141991;27;46226;-78
2022/03/10 12:54:52;;;;;;;;;13.00;13.00;;;;;;;;5142312;27;45350;-77
2022/03/10 12:57:18;;;;;;;;;14.33;14.00;;;;;;;;5142104;27;45616;-78
2022/03/10 12:59:43;;;;;;;;;11.67;10.67;;;;;;;;5143503;27;45643;-78
2022/03/10 13:02:16;;;;;;;;;12.00;11.00;;;;;;;;5143717;27;45270;-78
2022/03/10 13:04:48;;;;;;;;;12.67;11.00;;;;;;;;5142028;27;45543;-78
2022/03/10 13:07:17;;;;;;;;;13.67;13.67;;;;;;;;5143368;27;45290;-77
2022/03/10 13:09:49;;;;;;;;;13.67;13.33;;;;;;;;5143015;27;45433;-78
2022/03/10 13:12:22;;;;;;;;;15.67;15.00;;;;;;;;5143402;27;45353;-78
2022/03/10 13:14:47;;;;;;;;;15.33;13.33;;;;;;;;5125338;27;45420;-73
2022/03/10 13:17:13;;;;;;;;;13.33;13.00;;;;;;;;5110454;27;46455;-76
2022/03/10 13:19:41;;;;;;;;;13.00;13.00;;;;;;;;5127254;27;47969;-76
2022/03/10 13:22:06;;;;;;;;;13.00;13.00;;;;;;;;5114300;27;45428;-75
2022/03/10 13:24:42;;;;;;;;;13.67;13.67;;;;;;;;5103604;27;45420;-75
2022/03/10 13:27:17;;;;;;;;;14.33;14.33;;;;;;;;5106231;27;45239;-75
2022/03/10 13:29:44;;;;;;;;;20.00;17.67;;;;;;;;5100367;27;47540;-74
2022/03/10 13:32:11;;;;;;;;;15.00;13.00;;;;;;;;5100133;27;45273;-74
2022/03/10 13:34:37;;;;;;;;;17.67;16.33;;;;;;;;5100129;27;45336;-75
2022/03/10 13:37:03;;;;;;;;;14.00;13.33;;;;;;;;5101420;27;45457;-75
2022/03/10 13:39:30;;;;;;;;;17.67;16.67;;;;;;;;5099841;27;47728;-74
2022/03/10 13:41:55;;;;;;;;;16.33;15.00;;;;;;;;5101632;27;45302;-76
2022/03/10 13:44:21;;;;;;;;;18.67;18.67;;;;;;;;5101285;27;45380;-76
2022/03/10 13:46:46;;;;;;;;;18.67;18.00;;;;;;;;5101641;27;45372;-77
2022/03/10 13:49:19;;;;;;;;;15.33;15.33;;;;;;;;5100303;27;45543;-76
2022/03/10 13:51:45;;;;;;;;;19.67;19.00;;;;;;;;5119256;27;45650;-78
2022/03/10 13:54:11;;;;;;;;;21.00;21.00;;;;;;;;5102493;27;45301;-78
2022/03/10 13:56:40;;;;;;;;;23.00;22.00;;;;;;;;5104237;27;47337;-79
2022/03/10 13:59:09;;;;;;;;;19.00;19.00;;;;;;;;5098909;27;46113;-79
2022/03/10 14:01:35;;;;;;;;;25.00;25.00;;;;;;;;5099593;27;45432;-79
2022/03/10 14:04:07;;;;;;;;;27.33;26.33;;;;;;;;5099816;27;45350;-78
2022/03/10 14:06:39;;;;;;;;;28.33;27.67;;;;;;;;5100475;27;45559;-77
2022/03/10 14:09:14;;;;;;;;;26.67;26.33;;;;;;;;5104677;27;45645;-79
2022/03/10 14:11:39;;;;;;;;;32.33;29.00;;;;;;;;5098993;27;45524;-79
2022/03/10 14:14:05;;;;;;;;;36.00;31.33;;;;;;;;5099654;27;45239;-80
2022/03/10 14:16:31;;;;;;;;;32.33;29.67;;;;;;;;5100988;27;45328;-78